sensor_id;sensor_type;location;lat;lon;timestamp;P1;durP1;ratioP1;P2;durP2;ratioP2
33427;SDS011;19769;48.150;16.306;2022-08-20T00:01:51;5.25;;;3.40;;
33427;SDS011;19769;48.150;16.306;2022-08-20T00:04:17;4.05;;;3.15;;
33427;SDS011;19769;48.150;16.306;2022-08-20T00:06:43;3.20;;;2.90;;
33427;SDS011;19769;48.150;16.306;2022-08-20T00:09:10;4.97;;;3.17;;
33427;SDS011;19769;48.150;16.306;2022-08-20T00:11:36;4.88;;;3.10;;
33427;SDS011;19769;48.150;16.306;2022-08-20T00:14:03;3.85;;;3.33;;
33427;SDS011;19769;48.150;16.306;2022-08-20T00:16:31;5.15;;;3.55;;
33427;SDS011;19769;48.150;16.306;2022-08-20T00:18:58;5.38;;;2.80;;
33427;SDS011;19769;48.150;16.306;2022-08-20T00:21:24;3.83;;;3.30;;
33427;SDS011;19769;48.150;16.306;2022-08-20T00:23:52;4.18;;;3.25;;
33427;SDS011;19769;48.150;16.306;2022-08-20T00:26:19;3.80;;;3.10;;
33427;SDS011;19769;48.150;16.306;2022-08-20T00:28:46;4.45;;;3.15;;
33427;SDS011;19769;48.150;16.306;2022-08-20T00:31:13;3.63;;;2.90;;
33427;SDS011;19769;48.150;16.306;2022-08-20T00:33:40;4.78;;;3.35;;
33427;SDS011;19769;48.150;16.306;2022-08-20T00:36:07;4.15;;;3.30;;
33427;SDS011;19769;48.150;16.306;2022-08-20T00:38:35;5.15;;;3.08;;
33427;SDS011;19769;48.150;16.306;2022-08-20T00:41:02;3.78;;;2.97;;
33427;SDS011;19769;48.150;16.306;2022-08-20T00:43:34;4.18;;;3.15;;
33427;SDS011;19769;48.150;16.306;2022-08-20T00:46:03;4.63;;;3.30;;
33427;SDS011;19769;48.150;16.306;2022-08-20T00:48:31;5.32;;;3.42;;
33427;SDS011;19769;48.150;16.306;2022-08-20T00:51:03;4.03;;;3.25;;
33427;SDS011;19769;48.150;16.306;2022-08-20T00:53:29;3.92;;;3.30;;
33427;SDS011;19769;48.150;16.306;2022-08-20T00:55:56;3.63;;;3.22;;
33427;SDS011;19769;48.150;16.306;2022-08-20T00:58:22;4.20;;;3.25;;
33427;SDS011;19769;48.150;16.306;2022-08-20T01:00:49;3.78;;;3.20;;
33427;SDS011;19769;48.150;16.306;2022-08-20T01:03:16;5.47;;;3.20;;
33427;SDS011;19769;48.150;16.306;2022-08-20T01:05:44;3.85;;;3.00;;
33427;SDS011;19769;48.150;16.306;2022-08-20T01:08:11;3.80;;;3.40;;
33427;SDS011;19769;48.150;16.306;2022-08-20T01:10:38;4.93;;;2.88;;
33427;SDS011;19769;48.150;16.306;2022-08-20T01:13:06;3.00;;;2.70;;
33427;SDS011;19769;48.150;16.306;2022-08-20T01:15:35;3.88;;;3.13;;
33427;SDS011;19769;48.150;16.306;2022-08-20T01:18:04;3.65;;;2.97;;
33427;SDS011;19769;48.150;16.306;2022-08-20T01:20:32;3.97;;;3.20;;
33427;SDS011;19769;48.150;16.306;2022-08-20T01:28:35;3.65;;;3.10;;
33427;SDS011;19769;48.150;16.306;2022-08-20T01:31:02;4.13;;;2.90;;
33427;SDS011;19769;48.150;16.306;2022-08-20T01:33:29;3.25;;;2.80;;
33427;SDS011;19769;48.150;16.306;2022-08-20T01:35:56;3.15;;;2.70;;
33427;SDS011;19769;48.150;16.306;2022-08-20T01:38:23;3.35;;;2.70;;
33427;SDS011;19769;48.150;16.306;2022-08-20T01:43:15;4.28;;;2.65;;
33427;SDS011;19769;48.150;16.306;2022-08-20T01:45:41;3.20;;;2.70;;
33427;SDS011;19769;48.150;16.306;2022-08-20T01:48:08;3.63;;;2.50;;
33427;SDS011;19769;48.150;16.306;2022-08-20T01:50:34;3.10;;;2.60;;
33427;SDS011;19769;48.150;16.306;2022-08-20T01:53:10;3.42;;;2.30;;
33427;SDS011;19769;48.150;16.306;2022-08-20T01:55:38;2.67;;;2.05;;
33427;SDS011;19769;48.150;16.306;2022-08-20T01:58:05;2.53;;;2.30;;
33427;SDS011;19769;48.150;16.306;2022-08-20T02:00:31;3.63;;;2.40;;
33427;SDS011;19769;48.150;16.306;2022-08-20T02:02:59;2.53;;;1.92;;
33427;SDS011;19769;48.150;16.306;2022-08-20T02:05:27;2.95;;;2.17;;
33427;SDS011;19769;48.150;16.306;2022-08-20T02:07:53;2.47;;;1.98;;
33427;SDS011;19769;48.150;16.306;2022-08-20T02:10:20;3.35;;;2.15;;
33427;SDS011;19769;48.150;16.306;2022-08-20T02:12:47;2.63;;;2.10;;
33427;SDS011;19769;48.150;16.306;2022-08-20T02:15:14;2.20;;;2.00;;
33427;SDS011;19769;48.150;16.306;2022-08-20T02:17:40;2.75;;;1.88;;
33427;SDS011;19769;48.150;16.306;2022-08-20T02:22:35;2.28;;;1.73;;
33427;SDS011;19769;48.150;16.306;2022-08-20T02:25:03;3.33;;;1.80;;
33427;SDS011;19769;48.150;16.306;2022-08-20T02:27:30;1.90;;;1.50;;
33427;SDS011;19769;48.150;16.306;2022-08-20T02:30:00;2.25;;;1.50;;
33427;SDS011;19769;48.150;16.306;2022-08-20T02:32:27;2.22;;;1.42;;
33427;SDS011;19769;48.150;16.306;2022-08-20T02:34:53;2.15;;;1.60;;
33427;SDS011;19769;48.150;16.306;2022-08-20T02:37:19;2.17;;;1.70;;
33427;SDS011;19769;48.150;16.306;2022-08-20T02:39:45;2.00;;;1.50;;
33427;SDS011;19769;48.150;16.306;2022-08-20T02:42:11;2.00;;;1.48;;
33427;SDS011;19769;48.150;16.306;2022-08-20T02:44:38;2.13;;;1.27;;
33427;SDS011;19769;48.150;16.306;2022-08-20T02:47:05;2.35;;;1.73;;
33427;SDS011;19769;48.150;16.306;2022-08-20T02:49:31;1.63;;;1.23;;
33427;SDS011;19769;48.150;16.306;2022-08-20T02:51:58;1.90;;;1.50;;
33427;SDS011;19769;48.150;16.306;2022-08-20T02:54:25;1.90;;;1.50;;
33427;SDS011;19769;48.150;16.306;2022-08-20T02:56:51;1.65;;;1.25;;
33427;SDS011;19769;48.150;16.306;2022-08-20T02:59:17;1.90;;;1.40;;
33427;SDS011;19769;48.150;16.306;2022-08-20T03:01:43;3.65;;;1.50;;
33427;SDS011;19769;48.150;16.306;2022-08-20T03:04:09;1.75;;;1.20;;
33427;SDS011;19769;48.150;16.306;2022-08-20T03:06:36;1.30;;;1.13;;
33427;SDS011;19769;48.150;16.306;2022-08-20T03:09:02;1.88;;;1.30;;
33427;SDS011;19769;48.150;16.306;2022-08-20T03:11:30;1.70;;;1.25;;
33427;SDS011;19769;48.150;16.306;2022-08-20T03:13:57;1.65;;;1.20;;
33427;SDS011;19769;48.150;16.306;2022-08-20T03:16:23;1.65;;;1.10;;
33427;SDS011;19769;48.150;16.306;2022-08-20T03:18:49;2.33;;;1.05;;
33427;SDS011;19769;48.150;16.306;2022-08-20T03:21:15;1.30;;;1.00;;
33427;SDS011;19769;48.150;16.306;2022-08-20T03:23:42;1.33;;;1.00;;
33427;SDS011;19769;48.150;16.306;2022-08-20T03:26:10;1.67;;;1.40;;
33427;SDS011;19769;48.150;16.306;2022-08-20T03:28:37;1.60;;;1.10;;
33427;SDS011;19769;48.150;16.306;2022-08-20T03:31:03;1.23;;;1.02;;
33427;SDS011;19769;48.150;16.306;2022-08-20T03:33:30;1.63;;;0.93;;
33427;SDS011;19769;48.150;16.306;2022-08-20T03:35:56;1.08;;;0.88;;
33427;SDS011;19769;48.150;16.306;2022-08-20T03:38:23;1.35;;;0.90;;
33427;SDS011;19769;48.150;16.306;2022-08-20T03:40:49;1.42;;;1.05;;
33427;SDS011;19769;48.150;16.306;2022-08-20T03:43:16;1.10;;;0.80;;
33427;SDS011;19769;48.150;16.306;2022-08-20T03:45:43;1.17;;;0.90;;
33427;SDS011;19769;48.150;16.306;2022-08-20T03:48:14;1.20;;;0.90;;
33427;SDS011;19769;48.150;16.306;2022-08-20T03:50:41;1.35;;;0.90;;
33427;SDS011;19769;48.150;16.306;2022-08-20T03:53:08;1.00;;;0.82;;
33427;SDS011;19769;48.150;16.306;2022-08-20T03:55:34;1.50;;;1.00;;
33427;SDS011;19769;48.150;16.306;2022-08-20T03:58:01;1.83;;;0.90;;
33427;SDS011;19769;48.150;16.306;2022-08-20T04:00:39;1.40;;;0.90;;
33427;SDS011;19769;48.150;16.306;2022-08-20T04:03:06;1.55;;;0.90;;
33427;SDS011;19769;48.150;16.306;2022-08-20T04:05:33;1.38;;;0.90;;
33427;SDS011;19769;48.150;16.306;2022-08-20T04:07:59;0.95;;;0.77;;
33427;SDS011;19769;48.150;16.306;2022-08-20T04:10:26;1.00;;;0.82;;
33427;SDS011;19769;48.150;16.306;2022-08-20T04:12:53;1.10;;;0.80;;
33427;SDS011;19769;48.150;16.306;2022-08-20T04:15:19;1.10;;;0.70;;
33427;SDS011;19769;48.150;16.306;2022-08-20T04:17:47;1.30;;;1.00;;
33427;SDS011;19769;48.150;16.306;2022-08-20T04:20:15;1.83;;;1.10;;
33427;SDS011;19769;48.150;16.306;2022-08-20T04:22:43;1.48;;;0.98;;
33427;SDS011;19769;48.150;16.306;2022-08-20T04:25:12;1.67;;;1.13;;
33427;SDS011;19769;48.150;16.306;2022-08-20T04:27:39;1.35;;;1.00;;
33427;SDS011;19769;48.150;16.306;2022-08-20T04:30:06;1.48;;;1.00;;
33427;SDS011;19769;48.150;16.306;2022-08-20T04:32:32;2.35;;;1.20;;
33427;SDS011;19769;48.150;16.306;2022-08-20T04:35:01;2.40;;;1.02;;
33427;SDS011;19769;48.150;16.306;2022-08-20T04:37:27;2.10;;;1.15;;
33427;SDS011;19769;48.150;16.306;2022-08-20T04:39:54;1.80;;;1.20;;
33427;SDS011;19769;48.150;16.306;2022-08-20T04:42:38;1.75;;;1.23;;
33427;SDS011;19769;48.150;16.306;2022-08-20T04:45:05;1.08;;;0.93;;
33427;SDS011;19769;48.150;16.306;2022-08-20T04:47:33;1.52;;;0.90;;
33427;SDS011;19769;48.150;16.306;2022-08-20T04:49:59;2.63;;;1.17;;
33427;SDS011;19769;48.150;16.306;2022-08-20T04:52:26;1.40;;;1.10;;
33427;SDS011;19769;48.150;16.306;2022-08-20T04:54:53;1.85;;;1.00;;
33427;SDS011;19769;48.150;16.306;2022-08-20T04:57:22;1.30;;;1.10;;
33427;SDS011;19769;48.150;16.306;2022-08-20T04:59:50;1.38;;;1.00;;
33427;SDS011;19769;48.150;16.306;2022-08-20T05:02:17;1.48;;;1.00;;
33427;SDS011;19769;48.150;16.306;2022-08-20T05:04:44;1.35;;;1.10;;
33427;SDS011;19769;48.150;16.306;2022-08-20T05:07:12;1.65;;;1.00;;
33427;SDS011;19769;48.150;16.306;2022-08-20T05:09:39;1.35;;;1.00;;
33427;SDS011;19769;48.150;16.306;2022-08-20T05:12:05;1.77;;;1.10;;
33427;SDS011;19769;48.150;16.306;2022-08-20T05:14:31;1.70;;;0.88;;
33427;SDS011;19769;48.150;16.306;2022-08-20T05:17:00;1.55;;;1.00;;
33427;SDS011;19769;48.150;16.306;2022-08-20T05:19:26;1.15;;;1.00;;
33427;SDS011;19769;48.150;16.306;2022-08-20T05:21:53;1.40;;;1.10;;
33427;SDS011;19769;48.150;16.306;2022-08-20T05:24:19;1.98;;;0.90;;
33427;SDS011;19769;48.150;16.306;2022-08-20T05:26:45;1.10;;;0.90;;
33427;SDS011;19769;48.150;16.306;2022-08-20T05:29:11;2.00;;;0.90;;
33427;SDS011;19769;48.150;16.306;2022-08-20T05:31:37;1.25;;;0.80;;
33427;SDS011;19769;48.150;16.306;2022-08-20T05:34:05;1.20;;;0.90;;
33427;SDS011;19769;48.150;16.306;2022-08-20T05:36:35;1.30;;;1.10;;
33427;SDS011;19769;48.150;16.306;2022-08-20T05:39:01;1.33;;;0.93;;
33427;SDS011;19769;48.150;16.306;2022-08-20T05:41:27;1.00;;;0.88;;
33427;SDS011;19769;48.150;16.306;2022-08-20T05:43:54;1.23;;;0.80;;
33427;SDS011;19769;48.150;16.306;2022-08-20T05:46:20;2.05;;;0.70;;
33427;SDS011;19769;48.150;16.306;2022-08-20T05:48:47;1.48;;;1.00;;
33427;SDS011;19769;48.150;16.306;2022-08-20T05:51:13;1.33;;;0.80;;
33427;SDS011;19769;48.150;16.306;2022-08-20T05:53:39;1.25;;;0.82;;
33427;SDS011;19769;48.150;16.306;2022-08-20T05:56:06;1.35;;;0.90;;
33427;SDS011;19769;48.150;16.306;2022-08-20T05:58:35;0.90;;;0.75;;
33427;SDS011;19769;48.150;16.306;2022-08-20T06:01:02;1.42;;;0.85;;
33427;SDS011;19769;48.150;16.306;2022-08-20T06:03:28;1.73;;;0.90;;
33427;SDS011;19769;48.150;16.306;2022-08-20T06:06:13;1.08;;;0.70;;
33427;SDS011;19769;48.150;16.306;2022-08-20T06:08:39;1.38;;;0.80;;
33427;SDS011;19769;48.150;16.306;2022-08-20T06:11:05;1.15;;;0.70;;
33427;SDS011;19769;48.150;16.306;2022-08-20T06:13:31;1.42;;;0.80;;
33427;SDS011;19769;48.150;16.306;2022-08-20T06:15:58;1.33;;;0.80;;
33427;SDS011;19769;48.150;16.306;2022-08-20T06:18:24;2.05;;;0.90;;
33427;SDS011;19769;48.150;16.306;2022-08-20T06:20:50;2.28;;;0.73;;
33427;SDS011;19769;48.150;16.306;2022-08-20T06:23:16;2.78;;;0.80;;
33427;SDS011;19769;48.150;16.306;2022-08-20T06:25:43;1.60;;;0.90;;
33427;SDS011;19769;48.150;16.306;2022-08-20T06:28:10;1.10;;;0.80;;
33427;SDS011;19769;48.150;16.306;2022-08-20T06:30:37;1.17;;;0.80;;
33427;SDS011;19769;48.150;16.306;2022-08-20T06:33:04;2.00;;;0.80;;
33427;SDS011;19769;48.150;16.306;2022-08-20T06:35:30;1.20;;;0.80;;
33427;SDS011;19769;48.150;16.306;2022-08-20T06:37:58;1.48;;;0.70;;
33427;SDS011;19769;48.150;16.306;2022-08-20T06:40:26;1.45;;;0.80;;
33427;SDS011;19769;48.150;16.306;2022-08-20T06:42:53;2.08;;;0.90;;
33427;SDS011;19769;48.150;16.306;2022-08-20T06:45:20;0.98;;;0.77;;
33427;SDS011;19769;48.150;16.306;2022-08-20T06:47:50;1.02;;;0.70;;
33427;SDS011;19769;48.150;16.306;2022-08-20T06:50:18;0.93;;;0.80;;
33427;SDS011;19769;48.150;16.306;2022-08-20T06:52:44;1.45;;;0.90;;
33427;SDS011;19769;48.150;16.306;2022-08-20T06:55:14;1.20;;;0.80;;
33427;SDS011;19769;48.150;16.306;2022-08-20T06:57:41;0.90;;;0.80;;
33427;SDS011;19769;48.150;16.306;2022-08-20T07:00:17;1.83;;;0.90;;
33427;SDS011;19769;48.150;16.306;2022-08-20T07:02:44;1.33;;;0.90;;
33427;SDS011;19769;48.150;16.306;2022-08-20T07:05:12;6.95;;;6.07;;
33427;SDS011;19769;48.150;16.306;2022-08-20T07:07:38;2.13;;;1.30;;
33427;SDS011;19769;48.150;16.306;2022-08-20T07:10:09;1.42;;;0.88;;
33427;SDS011;19769;48.150;16.306;2022-08-20T07:12:36;1.30;;;0.70;;
33427;SDS011;19769;48.150;16.306;2022-08-20T07:15:06;1.77;;;0.68;;
33427;SDS011;19769;48.150;16.306;2022-08-20T07:17:33;0.88;;;0.60;;
33427;SDS011;19769;48.150;16.306;2022-08-20T07:20:04;1.23;;;0.70;;
33427;SDS011;19769;48.150;16.306;2022-08-20T07:22:30;2.08;;;0.80;;
33427;SDS011;19769;48.150;16.306;2022-08-20T07:25:04;2.05;;;0.70;;
33427;SDS011;19769;48.150;16.306;2022-08-20T07:27:31;2.05;;;0.90;;
33427;SDS011;19769;48.150;16.306;2022-08-20T07:29:57;1.85;;;0.90;;
33427;SDS011;19769;48.150;16.306;2022-08-20T07:32:42;1.83;;;0.80;;
33427;SDS011;19769;48.150;16.306;2022-08-20T07:35:09;1.00;;;0.70;;
33427;SDS011;19769;48.150;16.306;2022-08-20T07:37:38;3.20;;;0.80;;
33427;SDS011;19769;48.150;16.306;2022-08-20T07:40:07;2.15;;;0.70;;
33427;SDS011;19769;48.150;16.306;2022-08-20T07:42:33;2.50;;;0.95;;
33427;SDS011;19769;48.150;16.306;2022-08-20T07:45:00;1.13;;;0.70;;
33427;SDS011;19769;48.150;16.306;2022-08-20T07:47:26;1.90;;;0.88;;
33427;SDS011;19769;48.150;16.306;2022-08-20T07:49:53;1.33;;;0.80;;
33427;SDS011;19769;48.150;16.306;2022-08-20T07:52:19;1.10;;;0.70;;
33427;SDS011;19769;48.150;16.306;2022-08-20T07:54:45;1.90;;;0.90;;
33427;SDS011;19769;48.150;16.306;2022-08-20T07:57:11;3.30;;;0.80;;
33427;SDS011;19769;48.150;16.306;2022-08-20T07:59:37;1.92;;;0.90;;
33427;SDS011;19769;48.150;16.306;2022-08-20T08:02:04;2.65;;;1.00;;
33427;SDS011;19769;48.150;16.306;2022-08-20T08:04:30;0.50;;;0.50;;
33427;SDS011;19769;48.150;16.306;2022-08-20T08:06:56;2.28;;;0.70;;
33427;SDS011;19769;48.150;16.306;2022-08-20T08:09:25;0.90;;;0.60;;
33427;SDS011;19769;48.150;16.306;2022-08-20T08:11:52;1.73;;;0.85;;
33427;SDS011;19769;48.150;16.306;2022-08-20T08:14:22;1.17;;;0.82;;
33427;SDS011;19769;48.150;16.306;2022-08-20T08:16:54;1.08;;;0.68;;
33427;SDS011;19769;48.150;16.306;2022-08-20T08:19:21;1.55;;;0.63;;
33427;SDS011;19769;48.150;16.306;2022-08-20T08:21:48;2.58;;;0.60;;
33427;SDS011;19769;48.150;16.306;2022-08-20T08:24:14;5.65;;;0.65;;
33427;SDS011;19769;48.150;16.306;2022-08-20T08:26:42;0.77;;;0.50;;
33427;SDS011;19769;48.150;16.306;2022-08-20T08:29:09;3.95;;;1.15;;
33427;SDS011;19769;48.150;16.306;2022-08-20T08:31:36;1.38;;;0.50;;
33427;SDS011;19769;48.150;16.306;2022-08-20T08:34:05;1.20;;;0.45;;
33427;SDS011;19769;48.150;16.306;2022-08-20T08:36:31;1.50;;;0.60;;
33427;SDS011;19769;48.150;16.306;2022-08-20T08:38:57;1.20;;;0.60;;
33427;SDS011;19769;48.150;16.306;2022-08-20T08:46:34;0.88;;;0.60;;
33427;SDS011;19769;48.150;16.306;2022-08-20T08:49:01;1.67;;;0.70;;
33427;SDS011;19769;48.150;16.306;2022-08-20T08:51:51;1.95;;;0.50;;
33427;SDS011;19769;48.150;16.306;2022-08-20T08:54:15;1.58;;;0.50;;
33427;SDS011;19769;48.150;16.306;2022-08-20T08:56:41;1.08;;;0.50;;
33427;SDS011;19769;48.150;16.306;2022-08-20T08:59:08;1.05;;;0.75;;
33427;SDS011;19769;48.150;16.306;2022-08-20T09:01:44;0.93;;;0.52;;
33427;SDS011;19769;48.150;16.306;2022-08-20T09:04:12;0.80;;;0.60;;
33427;SDS011;19769;48.150;16.306;2022-08-20T09:06:38;0.85;;;0.70;;
33427;SDS011;19769;48.150;16.306;2022-08-20T09:09:06;0.70;;;0.55;;
33427;SDS011;19769;48.150;16.306;2022-08-20T09:11:46;1.20;;;0.70;;
33427;SDS011;19769;48.150;16.306;2022-08-20T09:14:13;0.95;;;0.60;;
33427;SDS011;19769;48.150;16.306;2022-08-20T09:16:39;1.10;;;0.80;;
33427;SDS011;19769;48.150;16.306;2022-08-20T09:19:05;1.13;;;0.70;;
33427;SDS011;19769;48.150;16.306;2022-08-20T09:21:31;0.90;;;0.70;;
33427;SDS011;19769;48.150;16.306;2022-08-20T09:23:57;1.55;;;0.90;;
33427;SDS011;19769;48.150;16.306;2022-08-20T09:26:23;1.08;;;0.73;;
33427;SDS011;19769;48.150;16.306;2022-08-20T09:28:49;1.17;;;0.70;;
33427;SDS011;19769;48.150;16.306;2022-08-20T09:31:15;1.65;;;0.90;;
33427;SDS011;19769;48.150;16.306;2022-08-20T09:33:41;7.68;;;5.80;;
33427;SDS011;19769;48.150;16.306;2022-08-20T09:36:08;2.20;;;0.93;;
33427;SDS011;19769;48.150;16.306;2022-08-20T09:38:34;3.17;;;2.00;;
33427;SDS011;19769;48.150;16.306;2022-08-20T09:41:00;2.33;;;1.35;;
33427;SDS011;19769;48.150;16.306;2022-08-20T09:43:26;1.70;;;1.02;;
33427;SDS011;19769;48.150;16.306;2022-08-20T09:45:52;1.75;;;1.05;;
33427;SDS011;19769;48.150;16.306;2022-08-20T09:48:19;1.70;;;0.85;;
33427;SDS011;19769;48.150;16.306;2022-08-20T09:50:45;1.50;;;0.98;;
33427;SDS011;19769;48.150;16.306;2022-08-20T09:53:13;3.05;;;1.50;;
33427;SDS011;19769;48.150;16.306;2022-08-20T09:55:43;5.25;;;4.00;;
33427;SDS011;19769;48.150;16.306;2022-08-20T10:00:54;2.33;;;1.70;;
33427;SDS011;19769;48.150;16.306;2022-08-20T10:03:20;1.83;;;1.20;;
33427;SDS011;19769;48.150;16.306;2022-08-20T10:05:46;3.80;;;3.30;;
33427;SDS011;19769;48.150;16.306;2022-08-20T10:08:13;4.07;;;2.45;;
33427;SDS011;19769;48.150;16.306;2022-08-20T10:10:39;1.70;;;1.15;;
33427;SDS011;19769;48.150;16.306;2022-08-20T10:13:06;1.50;;;1.25;;
33427;SDS011;19769;48.150;16.306;2022-08-20T10:15:32;1.95;;;1.13;;
33427;SDS011;19769;48.150;16.306;2022-08-20T10:17:58;2.42;;;1.10;;
33427;SDS011;19769;48.150;16.306;2022-08-20T10:20:29;1.85;;;1.35;;
33427;SDS011;19769;48.150;16.306;2022-08-20T10:22:55;3.35;;;1.33;;
33427;SDS011;19769;48.150;16.306;2022-08-20T10:25:21;1.60;;;1.30;;
33427;SDS011;19769;48.150;16.306;2022-08-20T10:27:48;1.52;;;1.30;;
33427;SDS011;19769;48.150;16.306;2022-08-20T10:30:14;1.75;;;1.15;;
33427;SDS011;19769;48.150;16.306;2022-08-20T10:32:40;2.30;;;1.20;;
33427;SDS011;19769;48.150;16.306;2022-08-20T10:35:07;3.55;;;1.33;;
33427;SDS011;19769;48.150;16.306;2022-08-20T10:37:33;1.73;;;1.17;;
33427;SDS011;19769;48.150;16.306;2022-08-20T10:40:00;2.15;;;1.40;;
33427;SDS011;19769;48.150;16.306;2022-08-20T10:42:26;1.30;;;1.20;;
33427;SDS011;19769;48.150;16.306;2022-08-20T10:44:52;1.85;;;1.08;;
33427;SDS011;19769;48.150;16.306;2022-08-20T10:47:20;1.60;;;1.10;;
33427;SDS011;19769;48.150;16.306;2022-08-20T10:49:47;1.85;;;1.23;;
33427;SDS011;19769;48.150;16.306;2022-08-20T10:52:13;2.70;;;1.30;;
33427;SDS011;19769;48.150;16.306;2022-08-20T10:54:39;1.55;;;1.30;;
33427;SDS011;19769;48.150;16.306;2022-08-20T10:57:06;1.50;;;1.10;;
33427;SDS011;19769;48.150;16.306;2022-08-20T10:59:36;1.38;;;1.23;;
33427;SDS011;19769;48.150;16.306;2022-08-20T11:02:02;1.65;;;1.20;;
33427;SDS011;19769;48.150;16.306;2022-08-20T11:04:28;1.08;;;0.98;;
33427;SDS011;19769;48.150;16.306;2022-08-20T11:06:55;2.47;;;1.00;;
33427;SDS011;19769;48.150;16.306;2022-08-20T11:09:21;1.27;;;1.10;;
33427;SDS011;19769;48.150;16.306;2022-08-20T11:11:47;1.30;;;1.10;;
33427;SDS011;19769;48.150;16.306;2022-08-20T11:14:13;2.05;;;1.40;;
33427;SDS011;19769;48.150;16.306;2022-08-20T11:16:39;1.73;;;1.30;;
33427;SDS011;19769;48.150;16.306;2022-08-20T11:19:05;2.72;;;1.20;;
33427;SDS011;19769;48.150;16.306;2022-08-20T11:21:31;1.27;;;1.10;;
33427;SDS011;19769;48.150;16.306;2022-08-20T11:23:57;1.40;;;1.20;;
33427;SDS011;19769;48.150;16.306;2022-08-20T11:26:23;2.17;;;1.38;;
33427;SDS011;19769;48.150;16.306;2022-08-20T11:28:50;1.55;;;1.23;;
33427;SDS011;19769;48.150;16.306;2022-08-20T11:31:16;2.13;;;1.30;;
33427;SDS011;19769;48.150;16.306;2022-08-20T11:33:42;2.63;;;1.15;;
33427;SDS011;19769;48.150;16.306;2022-08-20T11:36:08;1.40;;;1.25;;
33427;SDS011;19769;48.150;16.306;2022-08-20T11:38:34;2.03;;;1.40;;
33427;SDS011;19769;48.150;16.306;2022-08-20T11:41:00;1.70;;;1.45;;
33427;SDS011;19769;48.150;16.306;2022-08-20T11:43:26;2.78;;;1.42;;
33427;SDS011;19769;48.150;16.306;2022-08-20T11:45:53;4.68;;;4.15;;
33427;SDS011;19769;48.150;16.306;2022-08-20T11:48:20;2.00;;;1.63;;
33427;SDS011;19769;48.150;16.306;2022-08-20T11:50:46;2.08;;;1.67;;
33427;SDS011;19769;48.150;16.306;2022-08-20T11:53:13;2.92;;;1.60;;
33427;SDS011;19769;48.150;16.306;2022-08-20T11:55:39;1.83;;;1.20;;
33427;SDS011;19769;48.150;16.306;2022-08-20T11:58:05;2.13;;;1.77;;
33427;SDS011;19769;48.150;16.306;2022-08-20T12:00:31;2.53;;;1.70;;
33427;SDS011;19769;48.150;16.306;2022-08-20T12:02:57;1.92;;;1.70;;
33427;SDS011;19769;48.150;16.306;2022-08-20T12:05:23;2.33;;;1.90;;
33427;SDS011;19769;48.150;16.306;2022-08-20T12:07:51;2.03;;;1.73;;
33427;SDS011;19769;48.150;16.306;2022-08-20T12:10:17;2.45;;;1.95;;
33427;SDS011;19769;48.150;16.306;2022-08-20T12:12:43;2.17;;;1.90;;
33427;SDS011;19769;48.150;16.306;2022-08-20T12:15:10;3.28;;;2.10;;
33427;SDS011;19769;48.150;16.306;2022-08-20T12:17:36;2.78;;;1.90;;
33427;SDS011;19769;48.150;16.306;2022-08-20T12:20:04;2.58;;;2.10;;
33427;SDS011;19769;48.150;16.306;2022-08-20T12:22:31;2.17;;;1.92;;
33427;SDS011;19769;48.150;16.306;2022-08-20T12:24:56;4.22;;;2.20;;
33427;SDS011;19769;48.150;16.306;2022-08-20T12:27:27;3.08;;;1.85;;
33427;SDS011;19769;48.150;16.306;2022-08-20T12:29:56;2.25;;;1.83;;
33427;SDS011;19769;48.150;16.306;2022-08-20T12:32:24;2.47;;;2.00;;
33427;SDS011;19769;48.150;16.306;2022-08-20T12:34:52;2.70;;;2.10;;
33427;SDS011;19769;48.150;16.306;2022-08-20T12:37:20;2.38;;;2.08;;
33427;SDS011;19769;48.150;16.306;2022-08-20T12:39:49;2.67;;;2.05;;
33427;SDS011;19769;48.150;16.306;2022-08-20T12:42:16;2.60;;;2.13;;
33427;SDS011;19769;48.150;16.306;2022-08-20T12:44:42;3.50;;;2.33;;
33427;SDS011;19769;48.150;16.306;2022-08-20T12:49:35;3.00;;;2.13;;
33427;SDS011;19769;48.150;16.306;2022-08-20T12:52:01;2.40;;;2.10;;
33427;SDS011;19769;48.150;16.306;2022-08-20T12:54:28;3.10;;;2.25;;
33427;SDS011;19769;48.150;16.306;2022-08-20T12:56:54;3.00;;;2.22;;
33427;SDS011;19769;48.150;16.306;2022-08-20T12:59:21;2.38;;;2.17;;
33427;SDS011;19769;48.150;16.306;2022-08-20T13:01:48;2.67;;;2.40;;
33427;SDS011;19769;48.150;16.306;2022-08-20T13:04:14;2.53;;;2.20;;
33427;SDS011;19769;48.150;16.306;2022-08-20T13:06:40;2.83;;;2.33;;
33427;SDS011;19769;48.150;16.306;2022-08-20T13:09:07;3.05;;;2.30;;
33427;SDS011;19769;48.150;16.306;2022-08-20T13:11:35;2.33;;;2.10;;
33427;SDS011;19769;48.150;16.306;2022-08-20T13:14:04;2.20;;;2.00;;
33427;SDS011;19769;48.150;16.306;2022-08-20T13:16:30;2.95;;;2.40;;
33427;SDS011;19769;48.150;16.306;2022-08-20T13:18:56;2.50;;;2.10;;
33427;SDS011;19769;48.150;16.306;2022-08-20T13:21:22;2.40;;;2.10;;
33427;SDS011;19769;48.150;16.306;2022-08-20T13:23:51;2.90;;;2.15;;
33427;SDS011;19769;48.150;16.306;2022-08-20T13:26:17;4.03;;;2.00;;
33427;SDS011;19769;48.150;16.306;2022-08-20T13:28:44;2.97;;;2.20;;
33427;SDS011;19769;48.150;16.306;2022-08-20T13:31:10;2.30;;;1.90;;
33427;SDS011;19769;48.150;16.306;2022-08-20T13:33:36;2.30;;;1.70;;
33427;SDS011;19769;48.150;16.306;2022-08-20T13:36:03;1.90;;;1.70;;
33427;SDS011;19769;48.150;16.306;2022-08-20T13:38:29;2.63;;;2.00;;
33427;SDS011;19769;48.150;16.306;2022-08-20T13:40:55;7.10;;;6.40;;
33427;SDS011;19769;48.150;16.306;2022-08-20T13:43:21;6.28;;;5.30;;
33427;SDS011;19769;48.150;16.306;2022-08-20T13:45:47;2.78;;;2.00;;
33427;SDS011;19769;48.150;16.306;2022-08-20T13:48:13;1.80;;;1.52;;
33427;SDS011;19769;48.150;16.306;2022-08-20T13:50:39;2.33;;;1.90;;
33427;SDS011;19769;48.150;16.306;2022-08-20T13:53:05;2.10;;;1.80;;
33427;SDS011;19769;48.150;16.306;2022-08-20T13:55:31;2.00;;;1.80;;
33427;SDS011;19769;48.150;16.306;2022-08-20T13:58:02;2.15;;;1.70;;
33427;SDS011;19769;48.150;16.306;2022-08-20T14:00:29;2.20;;;1.80;;
33427;SDS011;19769;48.150;16.306;2022-08-20T14:02:56;3.30;;;2.10;;
33427;SDS011;19769;48.150;16.306;2022-08-20T14:05:22;2.00;;;1.80;;
33427;SDS011;19769;48.150;16.306;2022-08-20T14:07:48;2.22;;;2.03;;
33427;SDS011;19769;48.150;16.306;2022-08-20T14:10:17;3.95;;;2.10;;
33427;SDS011;19769;48.150;16.306;2022-08-20T14:12:43;2.90;;;2.60;;
33427;SDS011;19769;48.150;16.306;2022-08-20T14:15:09;3.47;;;2.97;;
33427;SDS011;19769;48.150;16.306;2022-08-20T14:17:37;3.30;;;2.88;;
33427;SDS011;19769;48.150;16.306;2022-08-20T14:20:14;4.05;;;3.65;;
33427;SDS011;19769;48.150;16.306;2022-08-20T14:22:41;2.88;;;2.60;;
33427;SDS011;19769;48.150;16.306;2022-08-20T14:25:09;4.07;;;2.38;;
33427;SDS011;19769;48.150;16.306;2022-08-20T14:27:36;3.20;;;2.65;;
33427;SDS011;19769;48.150;16.306;2022-08-20T14:30:03;3.30;;;2.63;;
33427;SDS011;19769;48.150;16.306;2022-08-20T14:32:29;4.55;;;2.60;;
33427;SDS011;19769;48.150;16.306;2022-08-20T14:34:55;2.95;;;2.63;;
33427;SDS011;19769;48.150;16.306;2022-08-20T14:37:30;4.20;;;3.00;;
33427;SDS011;19769;48.150;16.306;2022-08-20T14:39:57;3.13;;;2.78;;
33427;SDS011;19769;48.150;16.306;2022-08-20T14:42:25;3.75;;;2.78;;
33427;SDS011;19769;48.150;16.306;2022-08-20T14:44:52;3.90;;;3.45;;
33427;SDS011;19769;48.150;16.306;2022-08-20T14:47:26;4.20;;;3.80;;
33427;SDS011;19769;48.150;16.306;2022-08-20T14:49:54;5.05;;;3.80;;
33427;SDS011;19769;48.150;16.306;2022-08-20T14:52:21;3.45;;;2.95;;
33427;SDS011;19769;48.150;16.306;2022-08-20T14:54:48;5.00;;;3.45;;